sensor_id;sensor_type;location;lat;lon;timestamp;P1;durP1;ratioP1;P2;durP2;ratioP2
65998;SDS011;52766;56.008;37.440;2024-03-07T00:00:05;15.38;;;4.20;;
65998;SDS011;52766;56.008;37.440;2024-03-07T00:02:41;21.52;;;5.20;;
65998;SDS011;52766;56.008;37.440;2024-03-07T00:05:08;15.48;;;5.57;;
65998;SDS011;52766;56.008;37.440;2024-03-07T00:07:36;16.05;;;5.65;;
65998;SDS011;52766;56.008;37.440;2024-03-07T00:10:04;14.52;;;5.55;;
65998;SDS011;52766;56.008;37.440;2024-03-07T00:12:36;13.60;;;5.25;;
65998;SDS011;52766;56.008;37.440;2024-03-07T00:15:07;15.52;;;6.05;;
65998;SDS011;52766;56.008;37.440;2024-03-07T00:17:33;20.92;;;6.32;;
65998;SDS011;52766;56.008;37.440;2024-03-07T00:20:00;16.23;;;5.93;;
65998;SDS011;52766;56.008;37.440;2024-03-07T00:22:26;15.57;;;6.38;;
65998;SDS011;52766;56.008;37.440;2024-03-07T00:24:55;21.75;;;6.40;;
65998;SDS011;52766;56.008;37.440;2024-03-07T00:27:22;15.23;;;5.30;;
65998;SDS011;52766;56.008;37.440;2024-03-07T00:29:48;15.10;;;5.40;;
65998;SDS011;52766;56.008;37.440;2024-03-07T00:32:19;15.80;;;4.65;;
65998;SDS011;52766;56.008;37.440;2024-03-07T00:34:48;16.52;;;5.93;;
65998;SDS011;52766;56.008;37.440;2024-03-07T00:37:14;20.35;;;6.63;;
65998;SDS011;52766;56.008;37.440;2024-03-07T00:39:41;8.95;;;4.30;;
65998;SDS011;52766;56.008;37.440;2024-03-07T00:42:07;10.77;;;3.88;;
65998;SDS011;52766;56.008;37.440;2024-03-07T00:44:33;15.15;;;5.57;;
65998;SDS011;52766;56.008;37.440;2024-03-07T00:47:02;18.27;;;6.15;;
65998;SDS011;52766;56.008;37.440;2024-03-07T00:49:28;17.40;;;5.70;;
65998;SDS011;52766;56.008;37.440;2024-03-07T00:51:57;12.35;;;5.63;;
65998;SDS011;52766;56.008;37.440;2024-03-07T00:54:23;13.13;;;5.20;;
65998;SDS011;52766;56.008;37.440;2024-03-07T00:56:50;19.75;;;6.78;;
65998;SDS011;52766;56.008;37.440;2024-03-07T00:59:20;19.55;;;5.38;;
65998;SDS011;52766;56.008;37.440;2024-03-07T01:01:47;9.23;;;4.38;;
65998;SDS011;52766;56.008;37.440;2024-03-07T01:04:14;19.90;;;7.50;;
65998;SDS011;52766;56.008;37.440;2024-03-07T01:06:40;15.18;;;5.18;;
65998;SDS011;52766;56.008;37.440;2024-03-07T01:09:07;20.88;;;6.18;;
65998;SDS011;52766;56.008;37.440;2024-03-07T01:11:42;17.42;;;6.07;;
65998;SDS011;52766;56.008;37.440;2024-03-07T01:14:10;18.85;;;6.22;;
65998;SDS011;52766;56.008;37.440;2024-03-07T01:16:39;12.30;;;6.63;;
65998;SDS011;52766;56.008;37.440;2024-03-07T01:19:05;17.35;;;6.80;;
65998;SDS011;52766;56.008;37.440;2024-03-07T01:21:34;17.88;;;5.07;;
65998;SDS011;52766;56.008;37.440;2024-03-07T01:24:02;16.20;;;6.30;;
65998;SDS011;52766;56.008;37.440;2024-03-07T01:26:28;15.10;;;6.03;;
65998;SDS011;52766;56.008;37.440;2024-03-07T01:28:55;24.25;;;5.80;;
65998;SDS011;52766;56.008;37.440;2024-03-07T01:31:22;17.80;;;5.43;;
65998;SDS011;52766;56.008;37.440;2024-03-07T01:33:48;12.82;;;5.53;;
65998;SDS011;52766;56.008;37.440;2024-03-07T01:36:15;16.63;;;6.22;;
65998;SDS011;52766;56.008;37.440;2024-03-07T01:38:41;20.35;;;6.72;;
65998;SDS011;52766;56.008;37.440;2024-03-07T01:41:07;14.77;;;4.70;;
65998;SDS011;52766;56.008;37.440;2024-03-07T01:43:34;19.65;;;5.47;;
65998;SDS011;52766;56.008;37.440;2024-03-07T01:46:00;10.32;;;4.53;;
65998;SDS011;52766;56.008;37.440;2024-03-07T01:48:27;14.90;;;4.95;;
65998;SDS011;52766;56.008;37.440;2024-03-07T01:51:00;16.60;;;5.75;;
65998;SDS011;52766;56.008;37.440;2024-03-07T01:53:32;18.17;;;5.20;;
65998;SDS011;52766;56.008;37.440;2024-03-07T01:56:00;13.35;;;5.25;;
65998;SDS011;52766;56.008;37.440;2024-03-07T01:58:30;15.80;;;6.53;;
65998;SDS011;52766;56.008;37.440;2024-03-07T02:00:59;15.18;;;5.82;;
65998;SDS011;52766;56.008;37.440;2024-03-07T02:03:25;23.02;;;5.85;;
65998;SDS011;52766;56.008;37.440;2024-03-07T02:05:51;16.20;;;7.53;;
65998;SDS011;52766;56.008;37.440;2024-03-07T02:08:17;10.70;;;4.95;;
65998;SDS011;52766;56.008;37.440;2024-03-07T02:10:45;23.13;;;7.70;;
65998;SDS011;52766;56.008;37.440;2024-03-07T02:13:12;16.13;;;6.13;;
65998;SDS011;52766;56.008;37.440;2024-03-07T02:15:38;21.50;;;8.38;;
65998;SDS011;52766;56.008;37.440;2024-03-07T02:18:04;27.00;;;8.32;;
65998;SDS011;52766;56.008;37.440;2024-03-07T02:20:30;25.77;;;8.85;;
65998;SDS011;52766;56.008;37.440;2024-03-07T02:22:58;22.67;;;8.75;;
65998;SDS011;52766;56.008;37.440;2024-03-07T02:25:23;25.00;;;8.85;;
65998;SDS011;52766;56.008;37.440;2024-03-07T02:27:49;21.60;;;7.57;;
65998;SDS011;52766;56.008;37.440;2024-03-07T02:30:15;22.83;;;6.43;;
65998;SDS011;52766;56.008;37.440;2024-03-07T02:32:45;18.63;;;6.15;;
65998;SDS011;52766;56.008;37.440;2024-03-07T02:35:17;19.25;;;6.13;;
65998;SDS011;52766;56.008;37.440;2024-03-07T02:37:43;16.90;;;5.47;;
65998;SDS011;52766;56.008;37.440;2024-03-07T02:40:12;12.15;;;5.45;;
65998;SDS011;52766;56.008;37.440;2024-03-07T02:42:38;13.45;;;6.72;;
65998;SDS011;52766;56.008;37.440;2024-03-07T02:45:04;11.55;;;6.18;;
65998;SDS011;52766;56.008;37.440;2024-03-07T02:47:30;12.77;;;5.78;;
65998;SDS011;52766;56.008;37.440;2024-03-07T02:49:56;11.75;;;5.60;;
65998;SDS011;52766;56.008;37.440;2024-03-07T02:52:22;15.00;;;6.47;;
65998;SDS011;52766;56.008;37.440;2024-03-07T02:54:48;21.30;;;6.45;;
65998;SDS011;52766;56.008;37.440;2024-03-07T02:57:14;10.88;;;5.05;;
65998;SDS011;52766;56.008;37.440;2024-03-07T02:59:41;15.73;;;5.90;;
65998;SDS011;52766;56.008;37.440;2024-03-07T03:02:07;21.00;;;6.47;;
65998;SDS011;52766;56.008;37.440;2024-03-07T03:04:33;14.80;;;5.47;;
65998;SDS011;52766;56.008;37.440;2024-03-07T03:07:01;30.25;;;5.28;;
65998;SDS011;52766;56.008;37.440;2024-03-07T03:09:27;18.38;;;5.75;;
65998;SDS011;52766;56.008;37.440;2024-03-07T03:11:53;15.98;;;5.90;;
65998;SDS011;52766;56.008;37.440;2024-03-07T03:14:19;19.40;;;7.20;;
65998;SDS011;52766;56.008;37.440;2024-03-07T03:16:46;13.43;;;6.25;;
65998;SDS011;52766;56.008;37.440;2024-03-07T03:19:15;14.77;;;6.03;;
65998;SDS011;52766;56.008;37.440;2024-03-07T03:21:41;14.00;;;5.03;;
65998;SDS011;52766;56.008;37.440;2024-03-07T03:24:08;20.30;;;7.32;;
65998;SDS011;52766;56.008;37.440;2024-03-07T03:26:34;18.67;;;6.85;;
65998;SDS011;52766;56.008;37.440;2024-03-07T03:29:01;17.30;;;6.90;;
65998;SDS011;52766;56.008;37.440;2024-03-07T03:31:26;25.55;;;7.68;;
65998;SDS011;52766;56.008;37.440;2024-03-07T03:33:52;25.98;;;7.72;;
65998;SDS011;52766;56.008;37.440;2024-03-07T03:36:19;24.30;;;6.80;;
65998;SDS011;52766;56.008;37.440;2024-03-07T03:38:46;18.58;;;6.25;;
65998;SDS011;52766;56.008;37.440;2024-03-07T03:41:16;15.15;;;5.32;;
65998;SDS011;52766;56.008;37.440;2024-03-07T03:43:47;18.10;;;5.68;;
65998;SDS011;52766;56.008;37.440;2024-03-07T03:46:15;18.90;;;5.45;;
65998;SDS011;52766;56.008;37.440;2024-03-07T03:48:41;15.82;;;6.07;;
65998;SDS011;52766;56.008;37.440;2024-03-07T03:51:08;21.95;;;5.07;;
65998;SDS011;52766;56.008;37.440;2024-03-07T03:53:36;14.00;;;5.82;;
65998;SDS011;52766;56.008;37.440;2024-03-07T03:56:03;23.35;;;6.60;;
65998;SDS011;52766;56.008;37.440;2024-03-07T03:58:32;18.92;;;5.05;;
65998;SDS011;52766;56.008;37.440;2024-03-07T04:03:40;13.50;;;4.60;;
65998;SDS011;52766;56.008;37.440;2024-03-07T04:06:09;11.45;;;4.22;;
65998;SDS011;52766;56.008;37.440;2024-03-07T04:08:37;15.80;;;4.72;;
65998;SDS011;52766;56.008;37.440;2024-03-07T04:11:04;12.60;;;5.25;;
65998;SDS011;52766;56.008;37.440;2024-03-07T04:13:50;21.92;;;5.43;;
65998;SDS011;52766;56.008;37.440;2024-03-07T04:16:43;15.73;;;5.43;;
65998;SDS011;52766;56.008;37.440;2024-03-07T04:19:12;15.65;;;4.70;;
65998;SDS011;52766;56.008;37.440;2024-03-07T04:21:42;10.40;;;4.45;;
65998;SDS011;52766;56.008;37.440;2024-03-07T04:24:18;16.67;;;5.40;;
65998;SDS011;52766;56.008;37.440;2024-03-07T04:26:45;9.13;;;4.60;;
65998;SDS011;52766;56.008;37.440;2024-03-07T04:32:38;18.60;;;6.43;;
65998;SDS011;52766;56.008;37.440;2024-03-07T04:35:09;9.43;;;6.18;;
65998;SDS011;52766;56.008;37.440;2024-03-07T04:37:41;12.38;;;5.18;;
65998;SDS011;52766;56.008;37.440;2024-03-07T04:40:09;21.20;;;6.68;;
65998;SDS011;52766;56.008;37.440;2024-03-07T04:42:43;16.80;;;6.18;;
65998;SDS011;52766;56.008;37.440;2024-03-07T04:45:18;16.27;;;6.38;;
65998;SDS011;52766;56.008;37.440;2024-03-07T04:47:48;16.70;;;5.63;;
65998;SDS011;52766;56.008;37.440;2024-03-07T04:50:15;13.30;;;5.68;;
65998;SDS011;52766;56.008;37.440;2024-03-07T04:52:43;15.68;;;6.30;;
65998;SDS011;52766;56.008;37.440;2024-03-07T04:55:09;14.77;;;4.93;;
65998;SDS011;52766;56.008;37.440;2024-03-07T04:57:36;17.45;;;5.00;;
65998;SDS011;52766;56.008;37.440;2024-03-07T05:00:11;20.83;;;5.95;;
65998;SDS011;52766;56.008;37.440;2024-03-07T05:02:42;15.77;;;5.20;;
65998;SDS011;52766;56.008;37.440;2024-03-07T05:05:46;31.65;;;6.35;;
65998;SDS011;52766;56.008;37.440;2024-03-07T05:08:23;12.90;;;6.03;;
65998;SDS011;52766;56.008;37.440;2024-03-07T05:10:50;14.70;;;5.38;;
65998;SDS011;52766;56.008;37.440;2024-03-07T05:13:20;14.60;;;5.20;;
65998;SDS011;52766;56.008;37.440;2024-03-07T05:15:48;27.45;;;8.15;;
65998;SDS011;52766;56.008;37.440;2024-03-07T05:18:19;21.92;;;7.03;;
65998;SDS011;52766;56.008;37.440;2024-03-07T05:24:20;16.05;;;4.85;;
65998;SDS011;52766;56.008;37.440;2024-03-07T05:26:47;11.07;;;4.20;;
65998;SDS011;52766;56.008;37.440;2024-03-07T05:29:18;23.75;;;9.05;;
65998;SDS011;52766;56.008;37.440;2024-03-07T05:31:47;8.68;;;4.18;;
65998;SDS011;52766;56.008;37.440;2024-03-07T05:34:20;13.35;;;4.95;;
65998;SDS011;52766;56.008;37.440;2024-03-07T05:36:49;19.42;;;4.40;;
65998;SDS011;52766;56.008;37.440;2024-03-07T05:39:26;17.38;;;4.93;;
65998;SDS011;52766;56.008;37.440;2024-03-07T05:41:58;10.38;;;4.47;;
65998;SDS011;52766;56.008;37.440;2024-03-07T05:48:37;8.75;;;3.63;;
65998;SDS011;52766;56.008;37.440;2024-03-07T05:51:18;14.93;;;4.68;;
65998;SDS011;52766;56.008;37.440;2024-03-07T05:53:46;11.13;;;3.92;;
65998;SDS011;52766;56.008;37.440;2024-03-07T05:56:15;9.35;;;3.83;;
65998;SDS011;52766;56.008;37.440;2024-03-07T05:58:46;6.57;;;3.35;;
65998;SDS011;52766;56.008;37.440;2024-03-07T06:02:02;10.15;;;3.13;;
65998;SDS011;52766;56.008;37.440;2024-03-07T06:04:33;13.82;;;5.53;;
65998;SDS011;52766;56.008;37.440;2024-03-07T06:07:16;12.25;;;4.55;;
65998;SDS011;52766;56.008;37.440;2024-03-07T06:09:48;8.63;;;2.60;;
65998;SDS011;52766;56.008;37.440;2024-03-07T06:12:17;13.85;;;5.20;;
65998;SDS011;52766;56.008;37.440;2024-03-07T06:14:51;13.25;;;4.32;;
65998;SDS011;52766;56.008;37.440;2024-03-07T06:17:19;16.58;;;5.90;;
65998;SDS011;52766;56.008;37.440;2024-03-07T06:19:50;6.63;;;3.50;;
65998;SDS011;52766;56.008;37.440;2024-03-07T06:22:25;8.45;;;3.88;;
65998;SDS011;52766;56.008;37.440;2024-03-07T06:25:01;9.82;;;4.10;;
65998;SDS011;52766;56.008;37.440;2024-03-07T06:30:34;18.52;;;3.70;;
65998;SDS011;52766;56.008;37.440;2024-03-07T06:33:14;19.00;;;6.40;;
65998;SDS011;52766;56.008;37.440;2024-03-07T06:35:49;18.42;;;5.85;;
65998;SDS011;52766;56.008;37.440;2024-03-07T06:38:21;5.85;;;2.72;;
65998;SDS011;52766;56.008;37.440;2024-03-07T06:41:03;15.90;;;5.22;;
65998;SDS011;52766;56.008;37.440;2024-03-07T06:43:46;11.45;;;5.25;;
65998;SDS011;52766;56.008;37.440;2024-03-07T06:46:22;16.58;;;5.95;;
65998;SDS011;52766;56.008;37.440;2024-03-07T06:48:54;10.60;;;4.75;;
65998;SDS011;52766;56.008;37.440;2024-03-07T06:51:29;19.55;;;6.05;;
65998;SDS011;52766;56.008;37.440;2024-03-07T06:54:09;13.73;;;5.20;;
65998;SDS011;52766;56.008;37.440;2024-03-07T06:56:44;20.55;;;6.03;;
65998;SDS011;52766;56.008;37.440;2024-03-07T06:59:18;16.52;;;5.80;;
65998;SDS011;52766;56.008;37.440;2024-03-07T07:01:47;14.45;;;5.40;;
65998;SDS011;52766;56.008;37.440;2024-03-07T07:04:22;9.98;;;4.32;;
65998;SDS011;52766;56.008;37.440;2024-03-07T07:07:01;9.27;;;4.28;;
65998;SDS011;52766;56.008;37.440;2024-03-07T07:09:38;11.65;;;3.88;;
65998;SDS011;52766;56.008;37.440;2024-03-07T07:12:10;12.13;;;4.43;;
65998;SDS011;52766;56.008;37.440;2024-03-07T07:14:38;13.35;;;4.68;;
65998;SDS011;52766;56.008;37.440;2024-03-07T07:17:15;12.20;;;4.03;;
65998;SDS011;52766;56.008;37.440;2024-03-07T07:19:43;9.15;;;3.78;;
65998;SDS011;52766;56.008;37.440;2024-03-07T07:22:16;9.80;;;3.67;;
65998;SDS011;52766;56.008;37.440;2024-03-07T07:24:43;11.15;;;4.43;;
65998;SDS011;52766;56.008;37.440;2024-03-07T07:27:15;9.02;;;3.97;;
65998;SDS011;52766;56.008;37.440;2024-03-07T07:29:53;10.88;;;3.40;;
65998;SDS011;52766;56.008;37.440;2024-03-07T07:32:49;8.45;;;2.95;;
65998;SDS011;52766;56.008;37.440;2024-03-07T07:35:46;9.10;;;2.83;;
65998;SDS011;52766;56.008;37.440;2024-03-07T07:38:14;8.23;;;3.30;;
65998;SDS011;52766;56.008;37.440;2024-03-07T07:40:52;8.70;;;2.67;;
65998;SDS011;52766;56.008;37.440;2024-03-07T07:43:20;12.90;;;3.47;;
65998;SDS011;52766;56.008;37.440;2024-03-07T07:48:49;13.05;;;3.50;;
65998;SDS011;52766;56.008;37.440;2024-03-07T07:51:25;6.60;;;3.45;;
65998;SDS011;52766;56.008;37.440;2024-03-07T07:54:02;7.40;;;3.47;;
65998;SDS011;52766;56.008;37.440;2024-03-07T07:56:36;13.80;;;4.10;;
65998;SDS011;52766;56.008;37.440;2024-03-07T07:59:03;10.93;;;5.10;;
65998;SDS011;52766;56.008;37.440;2024-03-07T08:01:38;14.88;;;3.42;;
65998;SDS011;52766;56.008;37.440;2024-03-07T08:10:08;7.47;;;3.08;;
65998;SDS011;52766;56.008;37.440;2024-03-07T08:12:50;7.90;;;3.30;;
65998;SDS011;52766;56.008;37.440;2024-03-07T08:15:24;8.98;;;3.17;;
65998;SDS011;52766;56.008;37.440;2024-03-07T08:18:06;4.93;;;2.08;;
65998;SDS011;52766;56.008;37.440;2024-03-07T08:20:41;9.82;;;3.03;;
65998;SDS011;52766;56.008;37.440;2024-03-07T08:23:24;8.63;;;3.58;;
65998;SDS011;52766;56.008;37.440;2024-03-07T08:25:56;10.32;;;3.35;;
65998;SDS011;52766;56.008;37.440;2024-03-07T08:35:27;7.60;;;3.70;;
65998;SDS011;52766;56.008;37.440;2024-03-07T08:37:57;7.88;;;2.90;;
65998;SDS011;52766;56.008;37.440;2024-03-07T08:40:35;6.38;;;2.90;;
65998;SDS011;52766;56.008;37.440;2024-03-07T08:45:45;6.82;;;2.67;;
65998;SDS011;52766;56.008;37.440;2024-03-07T08:52:26;8.23;;;2.60;;
65998;SDS011;52766;56.008;37.440;2024-03-07T08:55:01;9.77;;;2.92;;
65998;SDS011;52766;56.008;37.440;2024-03-07T09:01:03;6.07;;;2.72;;
65998;SDS011;52766;56.008;37.440;2024-03-07T09:03:49;6.90;;;2.58;;
65998;SDS011;52766;56.008;37.440;2024-03-07T09:06:37;5.88;;;2.40;;
65998;SDS011;52766;56.008;37.440;2024-03-07T09:09:12;7.65;;;2.40;;
65998;SDS011;52766;56.008;37.440;2024-03-07T09:11:45;7.43;;;2.60;;
65998;SDS011;52766;56.008;37.440;2024-03-07T09:18:15;6.90;;;2.33;;
65998;SDS011;52766;56.008;37.440;2024-03-07T09:20:49;5.30;;;2.40;;
65998;SDS011;52766;56.008;37.440;2024-03-07T09:23:23;5.75;;;2.17;;
65998;SDS011;52766;56.008;37.440;2024-03-07T09:29:18;5.75;;;3.05;;
65998;SDS011;52766;56.008;37.440;2024-03-07T09:32:08;7.43;;;2.20;;
65998;SDS011;52766;56.008;37.440;2024-03-07T09:37:50;3.58;;;2.03;;
65998;SDS011;52766;56.008;37.440;2024-03-07T09:40:32;7.05;;;2.10;;
65998;SDS011;52766;56.008;37.440;2024-03-07T09:43:19;6.68;;;2.65;;
65998;SDS011;52766;56.008;37.440;2024-03-07T09:45:54;5.28;;;2.13;;
65998;SDS011;52766;56.008;37.440;2024-03-07T09:48:33;3.50;;;2.08;;
65998;SDS011;52766;56.008;37.440;2024-03-07T09:51:11;5.97;;;2.58;;
65998;SDS011;52766;56.008;37.440;2024-03-07T09:53:59;7.63;;;2.35;;
65998;SDS011;52766;56.008;37.440;2024-03-07T09:56:28;5.00;;;1.77;;
65998;SDS011;52766;56.008;37.440;2024-03-07T09:59:05;5.47;;;2.35;;
65998;SDS011;52766;56.008;37.440;2024-03-07T10:01:42;6.10;;;2.00;;
65998;SDS011;52766;56.008;37.440;2024-03-07T10:04:15;4.85;;;1.98;;
65998;SDS011;52766;56.008;37.440;2024-03-07T10:06:56;2.72;;;1.30;;
65998;SDS011;52766;56.008;37.440;2024-03-07T10:09:43;3.95;;;1.90;;
65998;SDS011;52766;56.008;37.440;2024-03-07T10:12:40;4.53;;;2.20;;
65998;SDS011;52766;56.008;37.440;2024-03-07T10:15:10;7.60;;;1.95;;
65998;SDS011;52766;56.008;37.440;2024-03-07T10:21:05;5.38;;;2.05;;
65998;SDS011;52766;56.008;37.440;2024-03-07T10:23:32;5.10;;;2.47;;
65998;SDS011;52766;56.008;37.440;2024-03-07T10:26:01;5.68;;;2.20;;
65998;SDS011;52766;56.008;37.440;2024-03-07T10:28:38;2.85;;;1.50;;
65998;SDS011;52766;56.008;37.440;2024-03-07T10:31:06;7.07;;;1.65;;
65998;SDS011;52766;56.008;37.440;2024-03-07T10:33:47;6.47;;;1.75;;
65998;SDS011;52766;56.008;37.440;2024-03-07T10:37:21;5.57;;;1.80;;
65998;SDS011;52766;56.008;37.440;2024-03-07T10:40:06;6.00;;;1.95;;
65998;SDS011;52766;56.008;37.440;2024-03-07T10:43:10;7.80;;;2.95;;
65998;SDS011;52766;56.008;37.440;2024-03-07T10:45:45;3.20;;;1.58;;
65998;SDS011;52766;56.008;37.440;2024-03-07T10:48:24;3.42;;;1.30;;
65998;SDS011;52766;56.008;37.440;2024-03-07T10:57:17;5.13;;;1.75;;
65998;SDS011;52766;56.008;37.440;2024-03-07T11:00:14;2.53;;;1.13;;
65998;SDS011;52766;56.008;37.440;2024-03-07T11:03:14;3.78;;;1.80;;
65998;SDS011;52766;56.008;37.440;2024-03-07T11:05:53;2.58;;;1.38;;
65998;SDS011;52766;56.008;37.440;2024-03-07T11:08:46;3.95;;;1.70;;
65998;SDS011;52766;56.008;37.440;2024-03-07T11:11:21;3.85;;;1.70;;
65998;SDS011;52766;56.008;37.440;2024-03-07T11:13:50;5.47;;;1.40;;
65998;SDS011;52766;56.008;37.440;2024-03-07T11:16:21;4.18;;;1.85;;
65998;SDS011;52766;56.008;37.440;2024-03-07T11:21:58;5.75;;;2.15;;
65998;SDS011;52766;56.008;37.440;2024-03-07T11:24:32;4.15;;;1.45;;
65998;SDS011;52766;56.008;37.440;2024-03-07T11:27:02;7.07;;;2.22;;
65998;SDS011;52766;56.008;37.440;2024-03-07T11:30:16;3.72;;;1.77;;
65998;SDS011;52766;56.008;37.440;2024-03-07T11:32:51;4.57;;;1.92;;
65998;SDS011;52766;56.008;37.440;2024-03-07T11:35:31;4.80;;;1.30;;
65998;SDS011;52766;56.008;37.440;2024-03-07T11:38:31;4.57;;;1.63;;
65998;SDS011;52766;56.008;37.440;2024-03-07T11:41:00;4.75;;;2.00;;
65998;SDS011;52766;56.008;37.440;2024-03-07T11:47:25;4.95;;;1.90;;
65998;SDS011;52766;56.008;37.440;2024-03-07T11:50:33;6.55;;;1.95;;
65998;SDS011;52766;56.008;37.440;2024-03-07T11:53:19;4.80;;;2.03;;
65998;SDS011;52766;56.008;37.440;2024-03-07T11:56:02;4.40;;;1.98;;
65998;SDS011;52766;56.008;37.440;2024-03-07T12:01:35;6.60;;;2.10;;
65998;SDS011;52766;56.008;37.440;2024-03-07T12:04:13;6.90;;;2.15;;
65998;SDS011;52766;56.008;37.440;2024-03-07T12:07:13;5.93;;;1.80;;
65998;SDS011;52766;56.008;37.440;2024-03-07T12:10:04;4.82;;;2.05;;
65998;SDS011;52766;56.008;37.440;2024-03-07T12:12:58;5.53;;;1.90;;
65998;SDS011;52766;56.008;37.440;2024-03-07T12:19:06;3.97;;;1.70;;
65998;SDS011;52766;56.008;37.440;2024-03-07T12:21:46;3.70;;;1.70;;
65998;SDS011;52766;56.008;37.440;2024-03-07T12:24:26;4.65;;;2.65;;
65998;SDS011;52766;56.008;37.440;2024-03-07T12:27:58;5.00;;;2.30;;
65998;SDS011;52766;56.008;37.440;2024-03-07T12:30:48;5.13;;;1.50;;
65998;SDS011;52766;56.008;37.440;2024-03-07T12:33:40;5.25;;;1.75;;
65998;SDS011;52766;56.008;37.440;2024-03-07T12:36:16;3.22;;;1.30;;
65998;SDS011;52766;56.008;37.440;2024-03-07T12:39:31;4.38;;;1.60;;
65998;SDS011;52766;56.008;37.440;2024-03-07T12:42:17;5.05;;;1.50;;
65998;SDS011;52766;56.008;37.440;2024-03-07T12:48:41;8.20;;;2.47;;
65998;SDS011;52766;56.008;37.440;2024-03-07T12:51:36;6.03;;;1.92;;
65998;SDS011;52766;56.008;37.440;2024-03-07T12:54:14;5.57;;;2.38;;
65998;SDS011;52766;56.008;37.440;2024-03-07T12:56:48;4.28;;;1.83;;
65998;SDS011;52766;56.008;37.440;2024-03-07T12:59:28;6.88;;;1.67;;
65998;SDS011;52766;56.008;37.440;2024-03-07T13:02:01;5.50;;;1.55;;
65998;SDS011;52766;56.008;37.440;2024-03-07T13:04:37;4.05;;;1.60;;
65998;SDS011;52766;56.008;37.440;2024-03-07T13:07:30;2.75;;;1.33;;
65998;SDS011;52766;56.008;37.440;2024-03-07T13:10:04;2.13;;;1.02;;
65998;SDS011;52766;56.008;37.440;2024-03-07T13:12:47;3.00;;;1.02;;
65998;SDS011;52766;56.008;37.440;2024-03-07T13:15:19;2.40;;;0.80;;
65998;SDS011;52766;56.008;37.440;2024-03-07T13:21:44;2.17;;;1.13;;
65998;SDS011;52766;56.008;37.440;2024-03-07T13:24:16;3.15;;;1.10;;
65998;SDS011;52766;56.008;37.440;2024-03-07T13:26:45;2.58;;;0.70;;
65998;SDS011;52766;56.008;37.440;2024-03-07T13:29:15;4.25;;;0.90;;
65998;SDS011;52766;56.008;37.440;2024-03-07T13:31:51;3.63;;;1.35;;
65998;SDS011;52766;56.008;37.440;2024-03-07T13:34:36;2.90;;;1.38;;
65998;SDS011;52766;56.008;37.440;2024-03-07T13:37:16;2.28;;;1.08;;
65998;SDS011;52766;56.008;37.440;2024-03-07T13:44:12;2.97;;;1.08;;
65998;SDS011;52766;56.008;37.440;2024-03-07T13:53:39;0.77;;;0.70;;
65998;SDS011;52766;56.008;37.440;2024-03-07T13:56:50;2.83;;;1.30;;
65998;SDS011;52766;56.008;37.440;2024-03-07T13:59:48;1.83;;;0.90;;
65998;SDS011;52766;56.008;37.440;2024-03-07T14:32:46;1.23;;;0.73;;
65998;SDS011;52766;56.008;37.440;2024-03-07T14:36:11;3.50;;;1.67;;
65998;SDS011;52766;56.008;37.440;2024-03-07T14:38:53;2.15;;;1.25;;
65998;SDS011;52766;56.008;37.440;2024-03-07T14:45:19;2.70;;;1.13;;
65998;SDS011;52766;56.008;37.440;2024-03-07T14:48:03;2.25;;;1.00;;
65998;SDS011;52766;56.008;37.440;2024-03-07T14:51:05;2.08;;;1.20;;
65998;SDS011;52766;56.008;37.440;2024-03-07T15:00:57;1.27;;;0.70;;
65998;SDS011;52766;56.008;37.440;2024-03-07T15:03:53;2.78;;;0.82;;
65998;SDS011;52766;56.008;37.440;2024-03-07T15:06:41;1.08;;;0.85;;
65998;SDS011;52766;56.008;37.440;2024-03-07T15:09:20;1.35;;;0.90;;
65998;SDS011;52766;56.008;37.440;2024-03-07T15:11:51;2.35;;;0.90;;
65998;SDS011;52766;56.008;37.440;2024-03-07T15:14:39;2.35;;;1.15;;
65998;SDS011;52766;56.008;37.440;2024-03-07T15:17:26;2.28;;;0.85;;
65998;SDS011;52766;56.008;37.440;2024-03-07T15:19:58;2.60;;;1.33;;
65998;SDS011;52766;56.008;37.440;2024-03-07T15:22:26;2.88;;;1.30;;
65998;SDS011;52766;56.008;37.440;2024-03-07T15:25:02;5.80;;;2.10;;
65998;SDS011;52766;56.008;37.440;2024-03-07T15:27:39;5.35;;;1.73;;
65998;SDS011;52766;56.008;37.440;2024-03-07T15:30:27;3.50;;;1.65;;
65998;SDS011;52766;56.008;37.440;2024-03-07T15:33:05;7.22;;;2.70;;
65998;SDS011;52766;56.008;37.440;2024-03-07T15:35:43;5.63;;;2.20;;
65998;SDS011;52766;56.008;37.440;2024-03-07T15:38:11;6.85;;;2.35;;
65998;SDS011;52766;56.008;37.440;2024-03-07T15:41:04;7.15;;;2.10;;
65998;SDS011;52766;56.008;37.440;2024-03-07T15:43:35;6.13;;;1.73;;
65998;SDS011;52766;56.008;37.440;2024-03-07T15:46:11;4.30;;;2.75;;
65998;SDS011;52766;56.008;37.440;2024-03-07T15:48:53;5.32;;;2.00;;
65998;SDS011;52766;56.008;37.440;2024-03-07T15:55:24;3.65;;;1.73;;
65998;SDS011;52766;56.008;37.440;2024-03-07T15:58:08;9.15;;;3.45;;
65998;SDS011;52766;56.008;37.440;2024-03-07T16:01:02;6.85;;;3.00;;
65998;SDS011;52766;56.008;37.440;2024-03-07T16:03:42;9.90;;;2.15;;
65998;SDS011;52766;56.008;37.440;2024-03-07T16:06:49;6.20;;;2.95;;
65998;SDS011;52766;56.008;37.440;2024-03-07T16:09:17;7.63;;;2.50;;
65998;SDS011;52766;56.008;37.440;2024-03-07T16:11:53;7.30;;;3.80;;
65998;SDS011;52766;56.008;37.440;2024-03-07T16:14:43;8.43;;;3.08;;
65998;SDS011;52766;56.008;37.440;2024-03-07T16:17:33;16.55;;;5.18;;
65998;SDS011;52766;56.008;37.440;2024-03-07T16:21:19;6.10;;;2.28;;
65998;SDS011;52766;56.008;37.440;2024-03-07T16:25:05;7.43;;;3.20;;
65998;SDS011;52766;56.008;37.440;2024-03-07T16:29:34;4.95;;;2.15;;
65998;SDS011;52766;56.008;37.440;2024-03-07T16:33:16;5.22;;;2.45;;
65998;SDS011;52766;56.008;37.440;2024-03-07T16:36:31;12.75;;;4.93;;
65998;SDS011;52766;56.008;37.440;2024-03-07T16:39:46;14.18;;;5.68;;
65998;SDS011;52766;56.008;37.440;2024-03-07T16:42:45;11.88;;;3.42;;
65998;SDS011;52766;56.008;37.440;2024-03-07T16:45:46;5.82;;;2.67;;
65998;SDS011;52766;56.008;37.440;2024-03-07T16:48:19;8.45;;;3.35;;
65998;SDS011;52766;56.008;37.440;2024-03-07T16:51:50;7.05;;;2.92;;
65998;SDS011;52766;56.008;37.440;2024-03-07T16:54:32;4.80;;;2.28;;
65998;SDS011;52766;56.008;37.440;2024-03-07T16:57:31;6.55;;;2.83;;
65998;SDS011;52766;56.008;37.440;2024-03-07T17:00:51;10.80;;;3.17;;
65998;SDS011;52766;56.008;37.440;2024-03-07T17:04:26;7.32;;;2.53;;
65998;SDS011;52766;56.008;37.440;2024-03-07T17:07:34;7.28;;;3.33;;
65998;SDS011;52766;56.008;37.440;2024-03-07T17:10:41;6.50;;;2.35;;
65998;SDS011;52766;56.008;37.440;2024-03-07T17:13:36;7.90;;;3.05;;
65998;SDS011;52766;56.008;37.440;2024-03-07T17:23:18;2.50;;;1.45;;
65998;SDS011;52766;56.008;37.440;2024-03-07T17:29:15;10.88;;;4.85;;
65998;SDS011;52766;56.008;37.440;2024-03-07T17:31:53;30.30;;;13.45;;
65998;SDS011;52766;56.008;37.440;2024-03-07T17:34:47;5.47;;;3.45;;
65998;SDS011;52766;56.008;37.440;2024-03-07T17:41:17;6.25;;;3.15;;
65998;SDS011;52766;56.008;37.440;2024-03-07T17:46:50;9.20;;;2.60;;
65998;SDS011;52766;56.008;37.440;2024-03-07T17:49:48;25.25;;;12.35;;
65998;SDS011;52766;56.008;37.440;2024-03-07T17:53:02;8.98;;;4.13;;
65998;SDS011;52766;56.008;37.440;2024-03-07T17:56:03;7.38;;;3.83;;
65998;SDS011;52766;56.008;37.440;2024-03-07T17:58:42;8.18;;;2.80;;
65998;SDS011;52766;56.008;37.440;2024-03-07T18:01:20;5.20;;;2.60;;
65998;SDS011;52766;56.008;37.440;2024-03-07T18:03:48;5.40;;;2.10;;
65998;SDS011;52766;56.008;37.440;2024-03-07T18:06:20;6.70;;;2.72;;